Time;durP1;ratioP1;P1;durP2;ratioP2;P2;SDS_P1;SDS_P2;PMS_P1;PMS_P2;Temp;Humidity;BMP_temperature;BMP_pressure;BME280_temperature;BME280_humidity;BME280_pressure;Samples;Min_cycle;Max_cycle;Signal;HPM_P1;HPM_P2
2023/07/17 00:00:54;;;;;;;3.67;2.23;;;17.60;1.00;;;;;;4998987;28;20275;-60
2023/07/17 00:03:21;;;;;;;5.17;2.43;;;17.60;1.00;;;;;;4999430;28;20281;-60
2023/07/17 00:05:50;;;;;;;4.77;2.27;;;17.60;1.00;;;;;;4997711;28;20588;-60
2023/07/17 00:08:17;;;;;;;6.20;3.07;;;17.70;1.00;;;;;;4998520;28;20571;-60
2023/07/17 00:10:44;;;;;;;5.07;2.27;;;17.70;99.90;;;;;;4998076;28;20657;-60
2023/07/17 00:13:11;;;;;;;5.10;1.90;;;17.70;99.90;;;;;;4993405;28;20228;-60
2023/07/17 00:15:38;;;;;;;6.17;2.53;;;17.70;99.90;;;;;;4999703;28;20272;-59
2023/07/17 00:18:05;;;;;;;5.63;2.47;;;17.50;99.90;;;;;;4998417;28;20201;-67
2023/07/17 00:20:32;;;;;;;4.63;2.50;;;17.40;1.00;;;;;;5010189;28;20219;-66
2023/07/17 00:22:59;;;;;;;3.73;2.47;;;17.40;1.00;;;;;;4997875;28;20677;-66
2023/07/17 00:25:26;;;;;;;3.97;2.27;;;17.50;1.00;;;;;;4998356;28;20566;-64
2023/07/17 00:27:52;;;;;;;4.50;2.40;;;17.40;99.90;;;;;;4996889;28;20220;-65
2023/07/17 00:30:19;;;;;;;4.33;2.53;;;17.40;1.00;;;;;;4997645;28;20235;-63
2023/07/17 00:32:46;;;;;;;6.10;2.77;;;17.60;1.00;;;;;;4989125;28;20204;-65
2023/07/17 00:35:13;;;;;;;4.03;2.30;;;17.60;1.00;;;;;;4995867;28;20219;-63
2023/07/17 00:37:41;;;;;;;5.93;2.37;;;17.60;99.90;;;;;;4996441;28;20207;-65
2023/07/17 00:40:08;;;;;;;3.40;2.27;;;17.50;99.90;;;;;;4990527;28;20231;-65
2023/07/17 00:42:35;;;;;;;4.10;2.17;;;17.60;1.00;;;;;;4995700;28;20204;-65
2023/07/17 00:45:02;;;;;;;4.00;2.50;;;17.70;99.90;;;;;;4996333;28;20214;-65
2023/07/17 00:47:29;;;;;;;3.00;2.10;;;17.80;99.90;;;;;;4996612;28;20581;-66
2023/07/17 00:49:57;;;;;;;4.87;2.57;;;17.50;98.90;;;;;;4999749;28;20677;-65
2023/07/17 00:52:24;;;;;;;8.03;2.47;;;17.70;88.50;;;;;;4999215;28;20844;-64
2023/07/17 00:54:52;;;;;;;3.20;2.10;;;17.60;1.00;;;;;;4997262;28;20226;-60
2023/07/17 00:57:22;;;;;;;4.37;2.20;;;17.50;67.80;;;;;;4997217;28;20693;-59
2023/07/17 00:59:50;;;;;;;4.53;2.90;;;17.50;1.00;;;;;;4996830;28;20209;-65
2023/07/17 01:02:18;;;;;;;3.30;2.17;;;17.50;99.90;;;;;;5012381;23;20662;-59
2023/07/17 01:04:46;;;;;;;3.30;2.10;;;17.50;99.90;;;;;;5007396;28;20685;-59
2023/07/17 01:07:15;;;;;;;5.63;2.47;;;17.50;99.90;;;;;;5006381;28;20201;-61
2023/07/17 01:09:42;;;;;;;5.43;2.43;;;17.40;1.00;;;;;;5005961;28;20236;-61
2023/07/17 01:12:09;;;;;;;4.70;2.63;;;17.30;1.00;;;;;;5003491;28;20208;-61
2023/07/17 01:14:36;;;;;;;4.00;2.17;;;17.40;99.90;;;;;;5001787;28;20213;-61
2023/07/17 01:17:03;;;;;;;5.03;2.43;;;17.30;99.90;;;;;;5002221;28;20735;-61
2023/07/17 01:19:30;;;;;;;5.83;2.50;;;17.30;1.00;;;;;;5001843;28;20557;-61
2023/07/17 01:22:15;;;;;;;6.20;2.40;;;17.20;1.00;;;;;;5002648;28;20204;-61
2023/07/17 01:24:42;;;;;;;4.33;2.33;;;17.30;1.00;;;;;;5016729;28;20217;-61
2023/07/17 01:27:09;;;;;;;5.93;2.27;;;17.20;1.00;;;;;;5000707;28;20255;-60
2023/07/17 01:29:36;;;;;;;5.17;2.30;;;17.30;1.00;;;;;;5003173;28;20201;-61
2023/07/17 01:32:03;;;;;;;2.73;2.23;;;17.20;1.00;;;;;;5001928;28;20306;-60
2023/07/17 01:34:30;;;;;;;5.97;2.47;;;17.20;1.00;;;;;;5002575;28;20197;-61
2023/07/17 01:36:57;;;;;;;5.30;2.53;;;17.30;1.00;;;;;;5001484;28;20205;-61
2023/07/17 01:39:26;;;;;;;5.70;2.30;;;17.30;99.90;;;;;;4999223;28;20688;-61
2023/07/17 01:41:53;;;;;;;5.83;2.43;;;17.20;99.90;;;;;;5000295;28;20280;-61
2023/07/17 01:44:21;;;;;;;3.33;2.17;;;17.20;1.00;;;;;;5001718;28;20198;-61
2023/07/17 01:46:47;;;;;;;5.50;2.70;;;17.10;99.90;;;;;;5002186;28;20716;-61
2023/07/17 01:49:15;;;;;;;8.33;2.20;;;17.00;1.00;;;;;;5003832;28;20324;-61
2023/07/17 01:51:42;;;;;;;5.00;2.53;;;17.00;1.00;;;;;;5002266;28;20272;-61
2023/07/17 01:54:08;;;;;;;2.50;2.10;;;17.00;1.00;;;;;;4998813;28;20248;-61
2023/07/17 01:56:35;;;;;;;6.53;2.30;;;17.10;1.00;;;;;;5003566;28;20217;-62
2023/07/17 01:59:02;;;;;;;5.63;2.13;;;17.10;1.00;;;;;;5001074;28;20541;-61
2023/07/17 02:01:29;;;;;;;4.63;2.80;;;17.10;1.00;;;;;;5004775;28;20641;-61
2023/07/17 02:03:56;;;;;;;5.70;2.40;;;17.10;1.00;;;;;;4999959;28;20321;-61
2023/07/17 02:06:23;;;;;;;4.60;2.13;;;17.00;1.00;;;;;;5002235;28;20275;-60
2023/07/17 02:08:50;;;;;;;6.63;2.30;;;17.00;1.00;;;;;;5000344;28;20306;-61
2023/07/17 02:11:17;;;;;;;7.33;3.60;;;16.90;1.00;;;;;;5002105;28;20204;-60
2023/07/17 02:13:44;;;;;;;3.27;2.33;;;16.90;99.90;;;;;;4999805;28;20250;-61
2023/07/17 02:16:11;;;;;;;5.40;2.30;;;16.90;1.00;;;;;;5001996;28;20209;-61
2023/07/17 02:18:38;;;;;;;7.03;2.77;;;16.90;1.00;;;;;;5001750;28;20221;-61
2023/07/17 02:21:04;;;;;;;6.93;3.07;;;16.70;53.00;;;;;;5003956;28;20213;-61
2023/07/17 02:23:31;;;;;;;4.33;2.33;;;16.60;1.00;;;;;;5000839;28;20279;-61
2023/07/17 02:25:58;;;;;;;4.43;2.33;;;16.70;1.00;;;;;;4999486;28;20605;-61
2023/07/17 02:28:25;;;;;;;5.13;2.43;;;16.60;1.00;;;;;;5001250;28;20722;-61
2023/07/17 02:30:52;;;;;;;7.23;2.80;;;16.50;1.00;;;;;;5003500;28;20204;-61
2023/07/17 02:33:19;;;;;;;5.70;2.33;;;16.40;1.00;;;;;;5001691;28;20285;-60
2023/07/17 02:35:49;;;;;;;4.47;2.60;;;16.40;1.00;;;;;;5003005;28;20768;-61
2023/07/17 02:38:16;;;;;;;3.47;2.40;;;16.40;99.90;;;;;;5004727;28;20201;-61
2023/07/17 02:40:43;;;;;;;4.03;2.77;;;16.40;1.00;;;;;;5002603;28;20197;-61
2023/07/17 02:43:10;;;;;;;4.03;2.33;;;16.20;1.00;;;;;;4996158;28;20193;-61
2023/07/17 02:45:37;;;;;;;6.60;2.43;;;16.40;1.00;;;;;;5004613;28;20285;-61
2023/07/17 02:48:04;;;;;;;8.17;2.40;;;16.50;99.90;;;;;;5003363;28;20974;-61
2023/07/17 02:50:31;;;;;;;8.50;2.73;;;16.40;1.00;;;;;;5002483;28;20271;-63
2023/07/17 02:52:58;;;;;;;7.03;2.50;;;16.50;18.50;;;;;;4992019;28;20289;-60
2023/07/17 02:55:25;;;;;;;4.43;2.63;;;16.30;1.00;;;;;;5004422;28;20211;-61
2023/07/17 02:57:52;;;;;;;4.00;2.47;;;16.30;1.00;;;;;;5000907;28;20198;-61
2023/07/17 03:00:19;;;;;;;6.20;3.17;;;16.30;1.00;;;;;;4999132;28;20209;-61
2023/07/17 03:02:48;;;;;;;4.87;2.47;;;16.20;1.00;;;;;;5000718;28;20306;-61
2023/07/17 03:05:15;;;;;;;5.77;2.73;;;16.30;1.00;;;;;;5001883;28;20716;-61
2023/07/17 03:07:44;;;;;;;6.60;2.30;;;16.40;99.90;;;;;;4999260;28;20227;-61
2023/07/17 03:10:12;;;;;;;5.47;2.57;;;16.30;1.00;;;;;;5001586;28;20919;-61
2023/07/17 03:12:39;;;;;;;5.60;2.63;;;16.30;1.00;;;;;;4997437;28;20296;-60
2023/07/17 03:15:07;;;;;;;6.27;2.80;;;16.20;99.90;;;;;;5001082;28;20236;-61
2023/07/17 03:17:34;;;;;;;4.83;2.57;;;16.20;1.00;;;;;;5001196;28;20203;-61
2023/07/17 03:20:03;;;;;;;5.63;2.77;;;16.20;1.00;;;;;;5007403;28;20201;-61
2023/07/17 03:22:30;;;;;;;7.50;2.87;;;16.30;1.00;;;;;;5003430;28;20284;-60
2023/07/17 03:24:57;;;;;;;5.03;2.60;;;16.40;1.00;;;;;;5005140;28;20228;-59
2023/07/17 03:27:24;;;;;;;4.20;2.90;;;16.30;99.90;;;;;;5005741;28;20205;-60
2023/07/17 03:29:51;;;;;;;6.63;2.67;;;16.30;1.00;;;;;;5003834;28;20209;-60
2023/07/17 03:32:18;;;;;;;5.23;2.60;;;16.30;1.00;;;;;;5006941;28;20215;-59
2023/07/17 03:34:44;;;;;;;5.73;2.73;;;15.90;1.00;;;;;;5005495;28;20211;-59
2023/07/17 03:37:12;;;;;;;8.20;3.10;;;16.00;1.00;;;;;;5006900;28;20458;-59
2023/07/17 03:39:39;;;;;;;9.17;3.20;;;16.00;99.90;;;;;;5005321;28;20232;-60
2023/07/17 03:42:10;;;;;;;7.43;2.90;;;15.90;1.00;;;;;;5005932;28;20207;-61
2023/07/17 03:44:38;;;;;;;7.37;2.90;;;15.80;1.00;;;;;;5002892;28;20643;-60
2023/07/17 03:47:08;;;;;;;7.20;2.67;;;16.00;1.00;;;;;;5003179;28;20206;-60
2023/07/17 03:49:36;;;;;;;8.93;2.60;;;16.00;1.00;;;;;;5007204;28;20346;-60
2023/07/17 03:52:03;;;;;;;7.80;3.30;;;15.80;1.00;;;;;;5006561;28;20259;-60
2023/07/17 03:54:32;;;;;;;4.77;2.80;;;16.00;1.00;;;;;;5008053;28;20211;-60
2023/07/17 03:56:59;;;;;;;6.17;2.67;;;15.90;1.00;;;;;;5007487;28;20296;-59
2023/07/17 03:59:26;;;;;;;4.53;2.70;;;15.90;99.90;;;;;;5004191;28;20197;-60
2023/07/17 04:01:53;;;;;;;8.80;2.70;;;15.90;99.90;;;;;;5010333;28;20229;-60
2023/07/17 04:04:20;;;;;;;7.37;2.90;;;15.90;99.90;;;;;;5007558;28;20323;-60
2023/07/17 04:06:47;;;;;;;6.77;2.57;;;16.00;99.90;;;;;;5008798;28;20220;-60
2023/07/17 04:09:15;;;;;;;6.00;2.67;;;15.80;1.00;;;;;;5009565;28;20240;-60
2023/07/17 04:11:45;;;;;;;6.17;3.13;;;15.90;1.00;;;;;;5008080;28;20657;-60
2023/07/17 04:14:13;;;;;;;6.43;2.57;;;15.90;99.90;;;;;;5006441;28;20274;-59
2023/07/17 04:16:40;;;;;;;5.20;2.53;;;15.90;99.90;;;;;;5008225;28;20685;-60
2023/07/17 04:19:07;;;;;;;3.27;2.47;;;15.80;1.00;;;;;;5002670;28;20197;-60
2023/07/17 04:21:34;;;;;;;6.03;2.70;;;15.80;1.00;;;;;;5009971;28;20653;-60
2023/07/17 04:24:01;;;;;;;5.87;2.50;;;15.80;1.00;;;;;;5008751;28;20252;-60
2023/07/17 04:26:28;;;;;;;8.13;3.00;;;15.80;1.00;;;;;;5010012;28;20214;-59
2023/07/17 04:28:55;;;;;;;7.03;3.27;;;15.90;1.00;;;;;;5005684;28;20260;-60
2023/07/17 04:31:22;;;;;;;8.60;3.30;;;15.70;99.90;;;;;;5010311;28;20205;-60
2023/07/17 04:33:49;;;;;;;6.47;2.90;;;15.80;1.00;;;;;;5008496;28;20213;-61
2023/07/17 04:36:16;;;;;;;7.83;3.30;;;15.80;1.00;;;;;;5007995;28;20230;-61
2023/07/17 04:38:42;;;;;;;9.27;4.33;;;15.90;1.00;;;;;;5008670;28;20555;-61
2023/07/17 04:41:09;;;;;;;6.73;3.07;;;15.90;1.00;;;;;;5010001;28;20207;-61
2023/07/17 04:43:36;;;;;;;5.43;4.00;;;15.90;1.00;;;;;;5018336;28;20554;-61
2023/07/17 04:46:03;;;;;;;9.17;3.87;;;15.90;99.90;;;;;;5009611;28;20217;-61
2023/07/17 04:48:30;;;;;;;9.20;3.40;;;16.00;40.30;;;;;;5008820;28;20214;-61
2023/07/17 04:50:57;;;;;;;5.73;3.00;;;15.80;1.00;;;;;;5008147;28;20625;-61
2023/07/17 04:53:24;;;;;;;9.57;4.07;;;15.80;80.60;;;;;;5007680;28;20216;-61
2023/07/17 04:55:50;;;;;;;9.47;4.07;;;15.70;99.90;;;;;;5008718;28;20218;-61
2023/07/17 04:58:18;;;;;;;9.63;4.27;;;15.80;1.00;;;;;;5006770;28;20220;-61
2023/07/17 05:00:47;;;;;;;5.93;4.10;;;15.80;99.90;;;;;;5003205;28;20193;-61
2023/07/17 05:03:15;;;;;;;10.57;4.40;;;15.80;1.00;;;;;;5006651;28;20385;-61
2023/07/17 05:05:48;;;;;;;9.93;3.90;;;16.00;15.00;;;;;;5009261;28;20246;-61
2023/07/17 05:08:15;;;;;;;8.60;4.43;;;16.00;1.00;;;;;;5009017;28;20199;-60
2023/07/17 05:10:42;;;;;;;7.77;3.87;;;16.10;1.00;;;;;;5001043;28;20205;-61
2023/07/17 05:13:09;;;;;;;7.80;3.87;;;16.10;1.00;;;;;;5002074;28;20732;-61
2023/07/17 05:15:36;;;;;;;11.53;4.97;;;16.10;99.90;;;;;;5003991;28;20268;-61
2023/07/17 05:18:03;;;;;;;7.90;3.50;;;16.10;99.90;;;;;;5005106;28;20221;-61
2023/07/17 05:20:30;;;;;;;9.07;3.77;;;16.10;99.90;;;;;;5007530;28;20552;-61
2023/07/17 05:22:57;;;;;;;6.10;3.57;;;16.10;99.90;;;;;;5000606;28;20249;-61
2023/07/17 05:25:24;;;;;;;12.30;4.50;;;16.20;1.00;;;;;;5001956;28;20215;-61
2023/07/17 05:27:51;;;;;;;7.90;3.60;;;16.10;99.90;;;;;;4999910;28;20205;-61
2023/07/17 05:30:18;;;;;;;8.20;4.10;;;16.20;99.90;;;;;;5003548;28;20260;-61
2023/07/17 05:32:45;;;;;;;9.57;4.43;;;16.20;99.90;;;;;;5000634;28;20220;-61
2023/07/17 05:35:12;;;;;;;12.20;4.03;;;16.30;25.10;;;;;;5005103;28;20193;-61
2023/07/17 05:37:39;;;;;;;7.90;4.27;;;16.30;1.00;;;;;;4641525;28;9999763;-61
2023/07/17 05:40:06;;;;;;;7.33;3.83;;;16.40;1.00;;;;;;4990097;28;20257;-61
2023/07/17 05:42:33;;;;;;;10.97;4.50;;;16.30;1.00;;;;;;4980126;28;20210;-59
2023/07/17 05:45:00;;;;;;;10.73;4.17;;;16.30;1.00;;;;;;4996535;28;20210;-58
2023/07/17 05:47:27;;;;;;;10.47;4.73;;;16.50;1.00;;;;;;5001305;28;20217;-58
2023/07/17 05:49:54;;;;;;;8.93;4.27;;;16.70;1.00;;;;;;5001234;28;20290;-60
2023/07/17 05:52:21;;;;;;;7.13;4.00;;;16.70;1.00;;;;;;4990523;28;20321;-60
2023/07/17 05:54:48;;;;;;;10.23;4.60;;;16.70;1.00;;;;;;4986764;28;20231;-60
2023/07/17 05:57:14;;;;;;;9.97;4.27;;;16.70;1.00;;;;;;4994345;28;20229;-59
2023/07/17 05:59:41;;;;;;;8.73;4.83;;;16.60;99.90;;;;;;4995753;28;20314;-60
2023/07/17 06:02:08;;;;;;;8.13;4.33;;;16.50;1.00;;;;;;4985999;28;20763;-61
2023/07/17 06:04:35;;;;;;;8.03;4.00;;;16.60;1.00;;;;;;4997026;28;20320;-59
2023/07/17 06:07:03;;;;;;;10.10;5.00;;;16.70;99.90;;;;;;4995789;28;20207;-61
2023/07/17 06:09:30;;;;;;;9.87;4.53;;;16.80;1.00;;;;;;4996909;28;20650;-59
2023/07/17 06:11:57;;;;;;;9.30;3.97;;;16.90;99.90;;;;;;4990929;28;20226;-60
2023/07/17 06:14:24;;;;;;;9.57;4.57;;;16.80;1.00;;;;;;4997135;28;20640;-59
2023/07/17 06:16:51;;;;;;;9.40;4.33;;;16.90;99.90;;;;;;4993390;28;20315;-60
2023/07/17 06:19:18;;;;;;;10.57;4.23;;;16.80;1.00;;;;;;4997348;28;20203;-61
2023/07/17 06:21:45;;;;;;;10.97;4.70;;;16.90;1.00;;;;;;4994253;28;20539;-60
2023/07/17 06:24:12;;;;;;;8.37;4.70;;;17.00;1.00;;;;;;4998013;28;20301;-59
2023/07/17 06:26:39;;;;;;;14.07;4.57;;;16.90;1.00;;;;;;5000342;28;20207;-59
2023/07/17 06:29:07;;;;;;;9.37;4.20;;;17.10;1.00;;;;;;4994302;28;20308;-59
2023/07/17 06:31:34;;;;;;;8.83;4.97;;;17.10;1.00;;;;;;4998913;28;20286;-59
2023/07/17 06:34:01;;;;;;;7.07;4.03;;;17.00;1.00;;;;;;4997717;28;20321;-59
2023/07/17 06:36:28;;;;;;;11.10;4.23;;;17.00;1.00;;;;;;4997331;28;20219;-60
2023/07/17 06:38:55;;;;;;;9.43;4.47;;;17.10;26.10;;;;;;4998694;28;20212;-59
2023/07/17 06:41:22;;;;;;;9.73;4.17;;;17.30;1.00;;;;;;4998784;28;20305;-60
2023/07/17 06:43:48;;;;;;;9.50;4.80;;;17.20;1.00;;;;;;4984299;28;20203;-60
2023/07/17 06:46:17;;;;;;;10.50;4.63;;;17.20;1.00;;;;;;4994114;28;20671;-60
2023/07/17 06:48:45;;;;;;;13.97;4.93;;;17.10;1.00;;;;;;4997055;28;20683;-61
2023/07/17 06:51:12;;;;;;;10.03;5.37;;;17.10;1.00;;;;;;4997180;28;20285;-60
2023/07/17 06:53:39;;;;;;;10.43;4.63;;;17.20;1.00;;;;;;4993180;28;20230;-61
2023/07/17 06:56:06;;;;;;;12.80;5.33;;;17.30;1.00;;;;;;4996648;28;20255;-61
2023/07/17 06:58:33;;;;;;;12.17;4.77;;;17.40;99.90;;;;;;4997885;28;20206;-59
2023/07/17 07:01:00;;;;;;;8.70;4.63;;;17.50;99.90;;;;;;4997455;28;20207;-59
2023/07/17 07:03:28;;;;;;;14.93;4.97;;;17.60;1.00;;;;;;4994589;28;20619;-60
2023/07/17 07:06:01;;;;;;;8.90;5.00;;;17.60;1.00;;;;;;4995816;28;20207;-61
2023/07/17 07:08:30;;;;;;;10.97;4.27;;;17.50;1.00;;;;;;4997071;28;20211;-61
2023/07/17 07:10:59;;;;;;;8.20;4.33;;;17.40;1.00;;;;;;4998732;28;20200;-59
2023/07/17 07:13:27;;;;;;;8.03;4.67;;;17.50;1.00;;;;;;4988147;28;20204;-61
2023/07/17 07:15:53;;;;;;;9.53;4.80;;;17.40;1.00;;;;;;4976948;28;20582;-59
2023/07/17 07:18:21;;;;;;;9.73;5.43;;;17.40;1.00;;;;;;4977314;28;20223;-61
2023/07/17 07:20:51;;;;;;;14.23;5.60;;;17.50;1.00;;;;;;4980928;28;20259;-61
2023/07/17 07:23:19;;;;;;;13.73;5.37;;;17.60;1.00;;;;;;4974729;28;20208;-59
2023/07/17 07:25:47;;;;;;;10.60;4.90;;;17.90;99.90;;;;;;4981197;28;20368;-62
2023/07/17 07:28:14;;;;;;;9.10;4.93;;;17.80;1.00;;;;;;4975964;28;20207;-61
2023/07/17 07:30:41;;;;;;;10.43;5.70;;;17.80;99.90;;;;;;4990022;28;20199;-60
2023/07/17 07:33:08;;;;;;;7.40;4.27;;;17.80;99.90;;;;;;4983566;28;20208;-61
2023/07/17 07:35:35;;;;;;;7.57;4.27;;;17.90;94.20;;;;;;4997783;28;20208;-60
2023/07/17 07:38:02;;;;;;;8.90;4.63;;;18.00;1.00;;;;;;4988210;28;20251;-60
2023/07/17 07:40:29;;;;;;;11.13;4.03;;;18.00;1.00;;;;;;4991328;28;20315;-60
2023/07/17 07:42:56;;;;;;;10.83;5.23;;;18.10;1.00;;;;;;4998056;28;20215;-59
2023/07/17 07:45:23;;;;;;;11.13;5.23;;;18.00;1.00;;;;;;4998632;28;20667;-62
2023/07/17 07:47:49;;;;;;;9.13;4.13;;;18.10;1.00;;;;;;5004833;28;20207;-59
2023/07/17 07:50:16;;;;;;;9.33;5.20;;;18.00;1.00;;;;;;5001672;28;20627;-59
2023/07/17 07:52:43;;;;;;;9.70;3.93;;;18.10;1.00;;;;;;4999224;28;20235;-62
2023/07/17 07:55:10;;;;;;;11.93;4.27;;;18.20;1.00;;;;;;4992706;28;20211;-61
2023/07/17 07:57:37;;;;;;;9.37;4.37;;;18.60;1.00;;;;;;4986048;28;20648;-59
2023/07/17 08:00:06;;;;;;;10.50;5.03;;;18.90;1.00;;;;;;4997425;28;20211;-60
2023/07/17 08:02:33;;;;;;;10.43;3.87;;;19.20;99.90;;;;;;4997783;28;20227;-58
2023/07/17 08:05:00;;;;;;;9.67;3.63;;;18.90;99.90;;;;;;4993879;28;20298;-58
2023/07/17 08:07:27;;;;;;;8.30;3.63;;;19.20;99.90;;;;;;4995682;28;20244;-58
2023/07/17 08:09:54;;;;;;;8.40;3.90;;;19.10;99.90;;;;;;5001222;28;20209;-58
2023/07/17 08:12:21;;;;;;;6.97;3.47;;;19.40;99.90;;;;;;4983556;28;20208;-58
2023/07/17 08:14:49;;;;;;;7.40;3.87;;;19.30;99.90;;;;;;4981494;28;20209;-58
2023/07/17 08:17:16;;;;;;;10.40;4.00;;;19.10;99.90;;;;;;4987732;28;20224;-58
2023/07/17 08:19:43;;;;;;;6.10;3.50;;;18.80;99.90;;;;;;5002332;28;20754;-58
2023/07/17 08:22:10;;;;;;;7.10;3.77;;;18.90;99.90;;;;;;4998848;28;20205;-58
2023/07/17 08:24:37;;;;;;;7.27;3.30;;;19.10;99.90;;;;;;4996023;28;20196;-58
2023/07/17 08:27:05;;;;;;;7.80;3.60;;;19.00;99.90;;;;;;4999483;28;20197;-57
2023/07/17 08:29:32;;;;;;;7.77;3.80;;;19.00;99.90;;;;;;4989104;28;20216;-58
2023/07/17 08:31:59;;;;;;;10.07;3.97;;;19.20;99.90;;;;;;4998591;28;20208;-58
2023/07/17 08:34:27;;;;;;;9.33;3.53;;;19.50;99.90;;;;;;5001358;28;20222;-59
2023/07/17 08:36:54;;;;;;;7.47;4.00;;;19.50;99.90;;;;;;4986611;28;20237;-58
2023/07/17 08:39:21;;;;;;;9.57;4.00;;;19.60;1.00;;;;;;4999865;28;20211;-59
2023/07/17 08:41:50;;;;;;;7.13;3.47;;;19.50;99.90;;;;;;5001654;28;20204;-58
2023/07/17 08:44:18;;;;;;;5.93;3.87;;;19.40;99.90;;;;;;4988622;28;20298;-59
2023/07/17 08:46:47;;;;;;;7.20;3.00;;;19.50;99.90;;;;;;4980700;28;20637;-58
2023/07/17 08:49:19;;;;;;;8.77;3.30;;;19.60;1.00;;;;;;4985753;28;20259;-60
2023/07/17 08:51:47;;;;;;;5.87;3.63;;;19.70;1.00;;;;;;4988385;28;20197;-58
2023/07/17 08:54:15;;;;;;;9.47;3.73;;;19.60;17.60;;;;;;4994587;28;20893;-58
2023/07/17 08:57:04;;;;;;;7.90;3.83;;;19.90;46.90;;;;;;4982091;28;20251;-59
2023/07/17 08:59:32;;;;;;;9.40;3.50;;;20.10;1.00;;;;;;4995993;28;20200;-58
2023/07/17 09:02:00;;;;;;;5.73;3.10;;;19.90;1.00;;;;;;4997097;28;20225;-58
2023/07/17 09:04:31;;;;;;;8.00;3.60;;;19.70;1.00;;;;;;4992771;28;20653;-58
2023/07/17 09:06:58;;;;;;;8.87;3.27;;;20.00;1.00;;;;;;4982263;28;20209;-58
2023/07/17 09:09:24;;;;;;;5.23;3.50;;;20.10;1.00;;;;;;4998406;28;21282;-58
2023/07/17 09:12:07;;;;;;;6.57;3.63;;;20.30;1.00;;;;;;4989409;28;20221;-58
2023/07/17 09:14:34;;;;;;;5.70;3.00;;;20.10;1.00;;;;;;4984782;28;20676;-59
2023/07/17 09:17:04;;;;;;;6.07;3.27;;;20.00;1.00;;;;;;4994854;28;20252;-60
2023/07/17 09:19:31;;;;;;;5.10;2.90;;;20.40;1.00;;;;;;4999462;28;20316;-59
2023/07/17 09:22:03;;;;;;;8.40;3.40;;;20.40;1.00;;;;;;4990707;28;20300;-59
2023/07/17 09:24:33;;;;;;;7.27;4.10;;;20.20;1.00;;;;;;4998725;28;21044;-59
2023/07/17 09:26:59;;;;;;;10.50;5.07;;;20.50;1.00;;;;;;5000634;28;20224;-59
2023/07/17 09:29:26;;;;;;;5.90;3.23;;;20.80;1.00;;;;;;5001492;28;20237;-59
2023/07/17 09:31:54;;;;;;;7.37;3.50;;;20.50;1.00;;;;;;4996252;28;20610;-59
2023/07/17 09:34:21;;;;;;;6.10;3.17;;;20.30;1.00;;;;;;4996675;28;20208;-59
2023/07/17 09:36:51;;;;;;;5.10;3.53;;;19.80;1.00;;;;;;4994396;28;20220;-59
2023/07/17 09:39:18;;;;;;;4.43;2.70;;;19.80;1.00;;;;;;4991775;28;20557;-59
2023/07/17 09:41:45;;;;;;;6.17;3.17;;;20.20;1.00;;;;;;4994938;28;20297;-59
2023/07/17 09:44:19;;;;;;;6.83;3.00;;;20.70;1.00;;;;;;4993744;28;21403;-59
2023/07/17 09:46:48;;;;;;;4.27;2.77;;;20.70;1.00;;;;;;5006214;28;20209;-58
2023/07/17 09:49:15;;;;;;;7.03;3.53;;;20.60;1.00;;;;;;5001039;28;20240;-59
2023/07/17 09:51:43;;;;;;;7.53;2.97;;;20.90;1.00;;;;;;4989135;28;21214;-59
2023/07/17 09:54:11;;;;;;;6.20;2.63;;;21.10;1.00;;;;;;4987134;28;20324;-62
2023/07/17 09:56:41;;;;;;;6.80;2.90;;;20.60;1.00;;;;;;4990276;28;20686;-61
2023/07/17 09:59:17;;;;;;;5.47;2.60;;;20.20;1.00;;;;;;4993764;28;20205;-61
2023/07/17 10:01:48;;;;;;;4.80;2.70;;;20.00;1.00;;;;;;4990347;28;20213;-60
2023/07/17 10:04:30;;;;;;;3.73;1.97;;;20.20;1.00;;;;;;4989233;28;20315;-61
2023/07/17 10:06:59;;;;;;;6.87;2.63;;;20.40;1.00;;;;;;4994812;28;20756;-61
2023/07/17 10:09:29;;;;;;;5.37;2.90;;;21.00;1.00;;;;;;4992857;28;20536;-61
2023/07/17 10:11:56;;;;;;;4.53;2.47;;;21.40;1.00;;;;;;4993504;28;20220;-61
2023/07/17 10:14:24;;;;;;;5.33;2.80;;;21.70;1.00;;;;;;4989791;28;20306;-61
2023/07/17 10:16:51;;;;;;;4.70;2.33;;;21.70;1.00;;;;;;4991659;28;20661;-61
2023/07/17 10:19:19;;;;;;;5.50;2.87;;;21.90;1.00;;;;;;4993166;28;20206;-63
2023/07/17 10:21:57;;;;;;;4.67;2.93;;;22.00;1.00;;;;;;4988437;28;20217;-61
2023/07/17 10:24:25;;;;;;;6.03;2.60;;;22.00;1.00;;;;;;4988293;28;20205;-60
2023/07/17 10:26:52;;;;;;;5.33;2.40;;;21.80;1.00;;;;;;4990460;28;20208;-59
2023/07/17 10:29:32;;;;;;;4.30;2.53;;;21.20;1.00;;;;;;4990579;28;20625;-59
2023/07/17 10:32:07;;;;;;;4.97;2.50;;;21.00;1.00;;;;;;4988004;28;20197;-60
2023/07/17 10:34:51;;;;;;;6.30;2.70;;;20.90;1.00;;;;;;4992908;28;20697;-60
2023/07/17 10:37:41;;;;;;;8.83;3.07;;;21.10;1.00;;;;;;5001238;28;20221;-60
2023/07/17 10:40:29;;;;;;;6.10;2.63;;;21.70;1.00;;;;;;4986859;28;20698;-60
2023/07/17 10:43:13;;;;;;;4.83;2.57;;;22.00;1.00;;;;;;4978241;28;20943;-60
2023/07/17 10:45:40;;;;;;;5.40;2.40;;;21.90;1.00;;;;;;4984963;28;20199;-59
2023/07/17 10:48:07;;;;;;;5.07;2.40;;;21.80;1.00;;;;;;4980668;28;21012;-60
2023/07/17 10:50:35;;;;;;;4.47;2.50;;;21.50;1.00;;;;;;4984409;28;20697;-59
2023/07/17 10:53:06;;;;;;;5.13;2.60;;;21.20;1.00;;;;;;4984042;28;20287;-60
2023/07/17 10:55:33;;;;;;;6.13;3.03;;;21.20;1.00;;;;;;4989179;28;20210;-60
2023/07/17 10:58:01;;;;;;;5.37;3.00;;;21.30;1.00;;;;;;4991864;28;20224;-60
2023/07/17 11:00:28;;;;;;;7.67;2.80;;;21.40;1.00;;;;;;4994327;28;20205;-60
2023/07/17 11:02:56;;;;;;;5.47;3.43;;;21.00;1.00;;;;;;4991778;28;20233;-60
2023/07/17 11:05:23;;;;;;;7.03;3.30;;;20.70;1.00;;;;;;4996463;28;20237;-59
2023/07/17 11:07:51;;;;;;;3.23;2.47;;;21.20;1.00;;;;;;4987335;28;20296;-60
2023/07/17 11:10:18;;;;;;;3.03;2.60;;;21.80;1.00;;;;;;4989937;28;20513;-60
2023/07/17 11:12:45;;;;;;;6.63;2.77;;;22.00;1.00;;;;;;4995554;28;20302;-59
2023/07/17 11:15:20;;;;;;;3.97;2.80;;;21.90;1.00;;;;;;4992407;28;20212;-60
2023/07/17 11:17:47;;;;;;;4.33;2.63;;;21.80;1.00;;;;;;4999870;28;20216;-60
2023/07/17 11:20:15;;;;;;;6.90;2.77;;;22.30;1.00;;;;;;4999752;28;20732;-59
2023/07/17 11:22:42;;;;;;;9.53;3.13;;;22.30;1.00;;;;;;4995188;28;20197;-60
2023/07/17 11:25:10;;;;;;;5.73;2.83;;;22.20;1.00;;;;;;4994668;28;20200;-60
2023/07/17 11:27:40;;;;;;;4.13;2.80;;;22.50;1.00;;;;;;4992712;28;20236;-60
2023/07/17 11:30:18;;;;;;;3.33;2.53;;;22.20;1.00;;;;;;4992498;28;20740;-60
2023/07/17 11:32:55;;;;;;;8.33;2.73;;;22.00;1.00;;;;;;4982451;28;20311;-60
2023/07/17 11:35:22;;;;;;;8.40;2.97;;;22.20;1.00;;;;;;4985492;28;20669;-60
2023/07/17 11:37:49;;;;;;;3.23;2.27;;;22.60;1.00;;;;;;4989137;28;20217;-61
2023/07/17 11:40:16;;;;;;;7.07;2.63;;;22.50;1.00;;;;;;4996969;28;20217;-60
2023/07/17 11:42:56;;;;;;;3.90;2.00;;;22.40;99.90;;;;;;4988683;28;20201;-60
2023/07/17 11:45:27;;;;;;;5.60;2.80;;;22.70;1.00;;;;;;4992930;28;20237;-60
2023/07/17 11:47:56;;;;;;;3.30;2.20;;;22.40;1.00;;;;;;4991611;28;20216;-60
2023/07/17 11:50:28;;;;;;;5.37;2.67;;;22.90;1.00;;;;;;4994244;28;20568;-60
2023/07/17 11:53:11;;;;;;;4.97;2.63;;;23.00;1.00;;;;;;4991616;28;20219;-60
2023/07/17 11:55:40;;;;;;;6.43;2.77;;;22.80;99.90;;;;;;4994680;28;20244;-60
2023/07/17 11:58:15;;;;;;;7.03;3.13;;;22.40;1.00;;;;;;4991492;28;20279;-60
2023/07/17 12:00:47;;;;;;;8.33;2.90;;;22.00;1.00;;;;;;4993767;28;20223;-60
2023/07/17 12:03:14;;;;;;;5.20;2.70;;;21.80;1.00;;;;;;4986283;28;20221;-60
2023/07/17 12:05:41;;;;;;;8.93;3.63;;;21.80;1.00;;;;;;4986325;28;20343;-60
2023/07/17 12:08:08;;;;;;;4.10;2.57;;;22.00;1.00;;;;;;4990819;28;20217;-60
2023/07/17 12:10:36;;;;;;;3.70;2.37;;;21.80;1.00;;;;;;4988984;28;20212;-60
2023/07/17 12:13:03;;;;;;;7.90;2.80;;;21.70;1.00;;;;;;4996991;28;20213;-60
2023/07/17 12:15:31;;;;;;;5.60;2.90;;;21.80;1.00;;;;;;4987926;28;20205;-60
2023/07/17 12:17:58;;;;;;;6.53;3.00;;;21.90;1.00;;;;;;4993932;28;20588;-60
2023/07/17 12:20:26;;;;;;;10.23;3.13;;;21.70;1.00;;;;;;4988835;28;20666;-59
2023/07/17 12:22:54;;;;;;;3.97;2.63;;;22.00;1.00;;;;;;4992935;28;20198;-59
2023/07/17 12:25:22;;;;;;;4.27;2.40;;;22.30;1.00;;;;;;4998844;28;20204;-59
2023/07/17 12:27:49;;;;;;;4.57;2.57;;;22.30;99.90;;;;;;5000259;28;20205;-59
2023/07/17 12:30:20;;;;;;;6.33;2.77;;;21.90;1.00;;;;;;4990919;28;20221;-59
2023/07/17 12:32:47;;;;;;;4.07;2.40;;;21.70;1.00;;;;;;4995488;28;20205;-59
2023/07/17 12:35:15;;;;;;;4.27;3.03;;;21.60;1.00;;;;;;4988168;28;20205;-59
2023/07/17 12:37:42;;;;;;;6.13;3.40;;;21.60;1.00;;;;;;4998010;28;20590;-61
2023/07/17 12:40:09;;;;;;;7.00;3.37;;;21.70;1.00;;;;;;5004975;28;20287;-59
2023/07/17 12:42:38;;;;;;;4.90;2.93;;;21.80;1.00;;;;;;5003581;28;20204;-60
2023/07/17 12:45:05;;;;;;;6.10;2.63;;;21.60;1.00;;;;;;4994366;28;20298;-59
2023/07/17 12:47:32;;;;;;;3.43;2.50;;;21.00;1.00;;;;;;4985429;28;20207;-59
2023/07/17 12:49:59;;;;;;;3.97;2.30;;;20.50;1.00;;;;;;4999161;28;20212;-60
2023/07/17 12:52:27;;;;;;;5.00;2.83;;;20.50;1.00;;;;;;4979144;28;20200;-59
2023/07/17 12:54:55;;;;;;;4.63;2.90;;;20.20;1.00;;;;;;4991433;28;20680;-60
2023/07/17 12:57:22;;;;;;;4.23;2.60;;;20.20;25.20;;;;;;4998246;28;20263;-60